sensor_id;sensor_type;location;lat;lon;timestamp;temperature;humidity
28835;DHT22;15969;51.536;11.884;2022-08-04T00:00:16;20.20;70.10
28835;DHT22;15969;51.536;11.884;2022-08-04T00:03:15;20.10;70.20
28835;DHT22;15969;51.536;11.884;2022-08-04T00:06:04;20.00;70.40
28835;DHT22;15969;51.536;11.884;2022-08-04T00:08:51;20.00;70.90
28835;DHT22;15969;51.536;11.884;2022-08-04T00:11:22;20.00;70.90
28835;DHT22;15969;51.536;11.884;2022-08-04T00:14:05;19.90;71.70
28835;DHT22;15969;51.536;11.884;2022-08-04T00:16:37;19.90;72.00
28835;DHT22;15969;51.536;11.884;2022-08-04T00:19:08;19.90;71.80
28835;DHT22;15969;51.536;11.884;2022-08-04T00:21:38;19.90;71.80
28835;DHT22;15969;51.536;11.884;2022-08-04T00:24:09;19.80;71.30
28835;DHT22;15969;51.536;11.884;2022-08-04T00:26:36;19.70;70.90
28835;DHT22;15969;51.536;11.884;2022-08-04T00:29:02;19.70;71.20
28835;DHT22;15969;51.536;11.884;2022-08-04T00:31:30;19.60;71.50
28835;DHT22;15969;51.536;11.884;2022-08-04T00:33:56;19.50;72.00
28835;DHT22;15969;51.536;11.884;2022-08-04T00:36:22;19.50;73.00
28835;DHT22;15969;51.536;11.884;2022-08-04T00:38:49;19.40;72.70
28835;DHT22;15969;51.536;11.884;2022-08-04T00:41:23;19.30;72.80
28835;DHT22;15969;51.536;11.884;2022-08-04T00:47:00;19.30;72.80
28835;DHT22;15969;51.536;11.884;2022-08-04T00:58:36;19.20;75.30
28835;DHT22;15969;51.536;11.884;2022-08-04T01:04:20;19.20;75.80
28835;DHT22;15969;51.536;11.884;2022-08-04T01:13:34;18.90;77.20
28835;DHT22;15969;51.536;11.884;2022-08-04T01:16:08;18.90;76.60
28835;DHT22;15969;51.536;11.884;2022-08-04T01:19:02;18.90;76.90
28835;DHT22;15969;51.536;11.884;2022-08-04T01:21:56;18.80;78.00
28835;DHT22;15969;51.536;11.884;2022-08-04T01:30:42;18.90;76.90
28835;DHT22;15969;51.536;11.884;2022-08-04T01:33:13;18.70;76.80
28835;DHT22;15969;51.536;11.884;2022-08-04T01:35:46;18.70;78.20
28835;DHT22;15969;51.536;11.884;2022-08-04T01:38:23;18.60;78.50
28835;DHT22;15969;51.536;11.884;2022-08-04T01:40:56;18.60;76.80
28835;DHT22;15969;51.536;11.884;2022-08-04T01:45:58;18.40;77.70
28835;DHT22;15969;51.536;11.884;2022-08-04T01:48:27;18.40;78.50
28835;DHT22;15969;51.536;11.884;2022-08-04T01:50:56;18.40;78.90
28835;DHT22;15969;51.536;11.884;2022-08-04T01:53:29;18.50;79.90
28835;DHT22;15969;51.536;11.884;2022-08-04T01:55:57;18.40;81.50
28835;DHT22;15969;51.536;11.884;2022-08-04T01:58:23;18.40;82.80
28835;DHT22;15969;51.536;11.884;2022-08-04T02:01:01;18.40;81.70
28835;DHT22;15969;51.536;11.884;2022-08-04T02:03:39;18.50;81.10
28835;DHT22;15969;51.536;11.884;2022-08-04T02:15:08;18.30;82.50
28835;DHT22;15969;51.536;11.884;2022-08-04T02:18:04;18.30;82.00
28835;DHT22;15969;51.536;11.884;2022-08-04T02:20:43;18.30;84.40
28835;DHT22;15969;51.536;11.884;2022-08-04T02:23:18;18.20;83.90
28835;DHT22;15969;51.536;11.884;2022-08-04T02:26:16;18.20;83.60
28835;DHT22;15969;51.536;11.884;2022-08-04T02:29:23;18.10;84.20
28835;DHT22;15969;51.536;11.884;2022-08-04T02:32:08;18.10;83.80
28835;DHT22;15969;51.536;11.884;2022-08-04T02:34:53;18.00;84.60
28835;DHT22;15969;51.536;11.884;2022-08-04T02:37:20;17.90;84.30
28835;DHT22;15969;51.536;11.884;2022-08-04T02:39:46;17.80;85.40
28835;DHT22;15969;51.536;11.884;2022-08-04T02:42:19;17.70;85.70
28835;DHT22;15969;51.536;11.884;2022-08-04T02:44:49;17.70;85.70
28835;DHT22;15969;51.536;11.884;2022-08-04T02:47:18;17.70;86.50
28835;DHT22;15969;51.536;11.884;2022-08-04T02:49:46;17.70;86.70
28835;DHT22;15969;51.536;11.884;2022-08-04T02:52:12;17.70;87.30
28835;DHT22;15969;51.536;11.884;2022-08-04T02:54:41;17.70;88.20
28835;DHT22;15969;51.536;11.884;2022-08-04T02:57:10;17.60;88.30
28835;DHT22;15969;51.536;11.884;2022-08-04T03:03:17;17.70;87.60
28835;DHT22;15969;51.536;11.884;2022-08-04T03:06:02;17.70;88.00
28835;DHT22;15969;51.536;11.884;2022-08-04T03:09:15;17.70;86.50
28835;DHT22;15969;51.536;11.884;2022-08-04T03:14:52;17.60;87.00
28835;DHT22;15969;51.536;11.884;2022-08-04T03:20:23;17.60;89.10
28835;DHT22;15969;51.536;11.884;2022-08-04T03:26:16;17.60;87.90
28835;DHT22;15969;51.536;11.884;2022-08-04T03:34:36;17.40;88.30
28835;DHT22;15969;51.536;11.884;2022-08-04T03:47:46;17.30;90.50
28835;DHT22;15969;51.536;11.884;2022-08-04T03:50:47;17.20;91.00
28835;DHT22;15969;51.536;11.884;2022-08-04T03:54:32;17.10;90.80
28835;DHT22;15969;51.536;11.884;2022-08-04T04:00:25;17.10;91.90
28835;DHT22;15969;51.536;11.884;2022-08-04T04:12:22;17.30;92.40
28835;DHT22;15969;51.536;11.884;2022-08-04T04:18:22;17.30;93.30
28835;DHT22;15969;51.536;11.884;2022-08-04T04:24:02;17.40;93.60
28835;DHT22;15969;51.536;11.884;2022-08-04T04:30:15;17.50;94.20
28835;DHT22;15969;51.536;11.884;2022-08-04T04:33:17;17.60;95.10
28835;DHT22;15969;51.536;11.884;2022-08-04T04:36:09;17.70;95.70
28835;DHT22;15969;51.536;11.884;2022-08-04T04:42:00;17.90;97.00
28835;DHT22;15969;51.536;11.884;2022-08-04T04:44:46;18.10;97.10
28835;DHT22;15969;51.536;11.884;2022-08-04T04:56:39;18.60;99.90
28835;DHT22;15969;51.536;11.884;2022-08-04T04:59:12;18.70;99.90
28835;DHT22;15969;51.536;11.884;2022-08-04T05:02:04;18.80;99.90
28835;DHT22;15969;51.536;11.884;2022-08-04T05:08:16;19.10;99.90
28835;DHT22;15969;51.536;11.884;2022-08-04T05:14:11;19.30;99.90
28835;DHT22;15969;51.536;11.884;2022-08-04T05:16:46;19.40;99.90
28835;DHT22;15969;51.536;11.884;2022-08-04T05:19:19;19.50;99.90
28835;DHT22;15969;51.536;11.884;2022-08-04T05:22:05;19.60;99.90
28835;DHT22;15969;51.536;11.884;2022-08-04T05:24:37;19.70;99.90
28835;DHT22;15969;51.536;11.884;2022-08-04T05:27:16;19.90;99.90
28835;DHT22;15969;51.536;11.884;2022-08-04T05:29:54;20.00;99.90
28835;DHT22;15969;51.536;11.884;2022-08-04T05:32:32;20.10;99.90
28835;DHT22;15969;51.536;11.884;2022-08-04T05:35:07;20.20;99.90
28835;DHT22;15969;51.536;11.884;2022-08-04T05:37:37;20.30;99.90
28835;DHT22;15969;51.536;11.884;2022-08-04T05:40:06;20.30;99.80
28835;DHT22;15969;51.536;11.884;2022-08-04T05:42:37;20.40;99.70
28835;DHT22;15969;51.536;11.884;2022-08-04T05:45:06;20.50;99.40
28835;DHT22;15969;51.536;11.884;2022-08-04T05:47:33;20.60;98.60
28835;DHT22;15969;51.536;11.884;2022-08-04T05:50:02;20.70;98.10
28835;DHT22;15969;51.536;11.884;2022-08-04T05:52:30;20.80;97.90
28835;DHT22;15969;51.536;11.884;2022-08-04T05:54:58;20.90;97.70
28835;DHT22;15969;51.536;11.884;2022-08-04T05:57:25;21.00;97.10
28835;DHT22;15969;51.536;11.884;2022-08-04T05:59:51;21.10;96.40
28835;DHT22;15969;51.536;11.884;2022-08-04T06:02:18;21.20;96.10
28835;DHT22;15969;51.536;11.884;2022-08-04T06:04:48;21.30;95.70
28835;DHT22;15969;51.536;11.884;2022-08-04T06:07:15;21.40;95.30
28835;DHT22;15969;51.536;11.884;2022-08-04T06:09:41;21.40;94.60
28835;DHT22;15969;51.536;11.884;2022-08-04T06:12:11;21.60;94.00
28835;DHT22;15969;51.536;11.884;2022-08-04T06:14:45;21.60;93.00
28835;DHT22;15969;51.536;11.884;2022-08-04T06:17:14;21.80;92.10
28835;DHT22;15969;51.536;11.884;2022-08-04T06:19:51;21.80;91.40
28835;DHT22;15969;51.536;11.884;2022-08-04T06:22:18;22.00;91.20
28835;DHT22;15969;51.536;11.884;2022-08-04T06:24:47;22.10;90.60
28835;DHT22;15969;51.536;11.884;2022-08-04T06:27:14;22.20;90.70
28835;DHT22;15969;51.536;11.884;2022-08-04T06:29:41;22.30;90.40
28835;DHT22;15969;51.536;11.884;2022-08-04T06:32:08;22.40;90.10
28835;DHT22;15969;51.536;11.884;2022-08-04T06:34:56;22.50;90.60
28835;DHT22;15969;51.536;11.884;2022-08-04T06:37:24;22.70;90.40
28835;DHT22;15969;51.536;11.884;2022-08-04T06:39:51;22.80;90.40
28835;DHT22;15969;51.536;11.884;2022-08-04T06:42:20;22.90;90.00
28835;DHT22;15969;51.536;11.884;2022-08-04T06:44:56;23.00;89.80
28835;DHT22;15969;51.536;11.884;2022-08-04T06:47:23;23.10;90.00
28835;DHT22;15969;51.536;11.884;2022-08-04T06:49:52;23.20;89.50
28835;DHT22;15969;51.536;11.884;2022-08-04T06:52:19;23.30;88.40
28835;DHT22;15969;51.536;11.884;2022-08-04T06:54:46;23.40;88.20
28835;DHT22;15969;51.536;11.884;2022-08-04T06:57:14;23.50;87.80
28835;DHT22;15969;51.536;11.884;2022-08-04T06:59:49;23.60;87.80
28835;DHT22;15969;51.536;11.884;2022-08-04T07:02:21;23.70;86.30
28835;DHT22;15969;51.536;11.884;2022-08-04T07:04:50;23.90;85.80
28835;DHT22;15969;51.536;11.884;2022-08-04T07:07:16;24.00;85.80
28835;DHT22;15969;51.536;11.884;2022-08-04T07:09:42;24.10;86.40
28835;DHT22;15969;51.536;11.884;2022-08-04T07:12:08;24.20;85.70
28835;DHT22;15969;51.536;11.884;2022-08-04T07:19:30;24.60;82.50
28835;DHT22;15969;51.536;11.884;2022-08-04T07:21:58;24.80;82.00
28835;DHT22;15969;51.536;11.884;2022-08-04T07:24:36;24.90;81.50
28835;DHT22;15969;51.536;11.884;2022-08-04T07:27:03;25.00;81.10
28835;DHT22;15969;51.536;11.884;2022-08-04T07:29:32;25.10;81.10
28835;DHT22;15969;51.536;11.884;2022-08-04T07:31:59;25.20;81.30
28835;DHT22;15969;51.536;11.884;2022-08-04T07:34:26;25.40;81.10
28835;DHT22;15969;51.536;11.884;2022-08-04T07:36:54;25.50;80.60
28835;DHT22;15969;51.536;11.884;2022-08-04T07:39:22;25.70;79.40
28835;DHT22;15969;51.536;11.884;2022-08-04T07:41:50;25.80;79.50
28835;DHT22;15969;51.536;11.884;2022-08-04T07:44:16;25.90;80.30
28835;DHT22;15969;51.536;11.884;2022-08-04T07:46:44;26.00;80.10
28835;DHT22;15969;51.536;11.884;2022-08-04T07:49:10;26.20;78.80
28835;DHT22;15969;51.536;11.884;2022-08-04T07:51:37;26.30;78.40
28835;DHT22;15969;51.536;11.884;2022-08-04T07:54:04;26.40;76.10
28835;DHT22;15969;51.536;11.884;2022-08-04T07:56:36;26.50;73.50
28835;DHT22;15969;51.536;11.884;2022-08-04T07:59:03;26.60;73.30
28835;DHT22;15969;51.536;11.884;2022-08-04T08:01:29;26.80;72.90
28835;DHT22;15969;51.536;11.884;2022-08-04T08:03:57;26.90;70.90
28835;DHT22;15969;51.536;11.884;2022-08-04T08:06:24;27.00;70.30
28835;DHT22;15969;51.536;11.884;2022-08-04T08:08:50;27.20;70.40
28835;DHT22;15969;51.536;11.884;2022-08-04T08:11:17;27.30;69.20
28835;DHT22;15969;51.536;11.884;2022-08-04T08:13:43;27.40;67.90
28835;DHT22;15969;51.536;11.884;2022-08-04T08:16:10;27.50;68.10
28835;DHT22;15969;51.536;11.884;2022-08-04T08:18:36;27.60;67.00
28835;DHT22;15969;51.536;11.884;2022-08-04T08:21:03;27.70;67.80
28835;DHT22;15969;51.536;11.884;2022-08-04T08:23:30;27.80;67.50
28835;DHT22;15969;51.536;11.884;2022-08-04T08:25:57;27.90;68.00
28835;DHT22;15969;51.536;11.884;2022-08-04T08:28:23;28.00;68.10
28835;DHT22;15969;51.536;11.884;2022-08-04T08:30:49;28.00;66.50
28835;DHT22;15969;51.536;11.884;2022-08-04T08:33:15;28.10;66.10
28835;DHT22;15969;51.536;11.884;2022-08-04T08:36:02;28.20;66.60
28835;DHT22;15969;51.536;11.884;2022-08-04T08:39:02;28.30;65.90
28835;DHT22;15969;51.536;11.884;2022-08-04T08:50:51;28.80;65.50
28835;DHT22;15969;51.536;11.884;2022-08-04T08:53:54;29.00;65.00
28835;DHT22;15969;51.536;11.884;2022-08-04T08:56:41;29.10;63.30
28835;DHT22;15969;51.536;11.884;2022-08-04T09:00:00;29.20;63.40
28835;DHT22;15969;51.536;11.884;2022-08-04T09:08:25;29.50;64.20
28835;DHT22;15969;51.536;11.884;2022-08-04T09:11:14;29.70;63.80
28835;DHT22;15969;51.536;11.884;2022-08-04T09:13:49;29.80;65.90
28835;DHT22;15969;51.536;11.884;2022-08-04T09:16:46;29.90;63.20
28835;DHT22;15969;51.536;11.884;2022-08-04T09:19:26;30.00;61.50
28835;DHT22;15969;51.536;11.884;2022-08-04T09:22:06;30.10;62.60
28835;DHT22;15969;51.536;11.884;2022-08-04T09:30:30;30.50;59.90
28835;DHT22;15969;51.536;11.884;2022-08-04T09:33:35;30.70;62.20
28835;DHT22;15969;51.536;11.884;2022-08-04T09:36:14;30.80;59.60
28835;DHT22;15969;51.536;11.884;2022-08-04T09:39:03;30.90;58.90
28835;DHT22;15969;51.536;11.884;2022-08-04T09:41:42;31.10;57.90
28835;DHT22;15969;51.536;11.884;2022-08-04T09:44:33;31.30;58.80
28835;DHT22;15969;51.536;11.884;2022-08-04T09:47:25;31.40;56.80
28835;DHT22;15969;51.536;11.884;2022-08-04T09:56:08;31.80;57.80
28835;DHT22;15969;51.536;11.884;2022-08-04T10:01:52;32.10;57.10
28835;DHT22;15969;51.536;11.884;2022-08-04T10:04:21;32.20;55.80
28835;DHT22;15969;51.536;11.884;2022-08-04T10:07:26;32.30;56.40
28835;DHT22;15969;51.536;11.884;2022-08-04T10:13:05;32.50;56.00
28835;DHT22;15969;51.536;11.884;2022-08-04T10:15:59;32.60;56.40
28835;DHT22;15969;51.536;11.884;2022-08-04T10:18:57;32.80;55.20
28835;DHT22;15969;51.536;11.884;2022-08-04T10:21:51;32.90;54.20
28835;DHT22;15969;51.536;11.884;2022-08-04T10:27:09;33.20;54.90
28835;DHT22;15969;51.536;11.884;2022-08-04T10:29:44;33.30;53.80
28835;DHT22;15969;51.536;11.884;2022-08-04T10:32:27;33.40;54.60
28835;DHT22;15969;51.536;11.884;2022-08-04T10:38:02;33.70;52.60
28835;DHT22;15969;51.536;11.884;2022-08-04T10:40:46;33.80;52.20
28835;DHT22;15969;51.536;11.884;2022-08-04T10:46:15;33.90;51.70
28835;DHT22;15969;51.536;11.884;2022-08-04T10:49:15;34.00;52.10
28835;DHT22;15969;51.536;11.884;2022-08-04T10:52:02;34.10;50.80
28835;DHT22;15969;51.536;11.884;2022-08-04T11:00:05;34.30;49.50
28835;DHT22;15969;51.536;11.884;2022-08-04T11:05:55;34.40;47.60
28835;DHT22;15969;51.536;11.884;2022-08-04T11:08:35;34.60;48.60
28835;DHT22;15969;51.536;11.884;2022-08-04T11:14:01;34.70;47.40
28835;DHT22;15969;51.536;11.884;2022-08-04T11:16:35;34.70;47.40
28835;DHT22;15969;51.536;11.884;2022-08-04T11:19:33;34.70;47.90
28835;DHT22;15969;51.536;11.884;2022-08-04T11:22:13;34.80;48.60
28835;DHT22;15969;51.536;11.884;2022-08-04T11:24:54;35.00;48.30
28835;DHT22;15969;51.536;11.884;2022-08-04T11:30:51;35.10;48.00
28835;DHT22;15969;51.536;11.884;2022-08-04T11:36:02;35.30;48.20
28835;DHT22;15969;51.536;11.884;2022-08-04T11:38:45;35.40;46.10
28835;DHT22;15969;51.536;11.884;2022-08-04T11:41:33;35.40;46.30
28835;DHT22;15969;51.536;11.884;2022-08-04T11:44:10;35.50;46.40
28835;DHT22;15969;51.536;11.884;2022-08-04T11:46:45;35.60;46.60
28835;DHT22;15969;51.536;11.884;2022-08-04T11:49:30;35.70;46.20
28835;DHT22;15969;51.536;11.884;2022-08-04T11:52:00;35.70;46.20
28835;DHT22;15969;51.536;11.884;2022-08-04T11:54:26;35.70;46.30
28835;DHT22;15969;51.536;11.884;2022-08-04T11:56:53;35.70;46.30
28835;DHT22;15969;51.536;11.884;2022-08-04T11:59:21;35.70;46.00
28835;DHT22;15969;51.536;11.884;2022-08-04T12:02:31;35.70;44.50
28835;DHT22;15969;51.536;11.884;2022-08-04T12:05:07;35.70;45.50
28835;DHT22;15969;51.536;11.884;2022-08-04T12:07:49;35.70;45.40
28835;DHT22;15969;51.536;11.884;2022-08-04T12:13:42;35.90;44.40
28835;DHT22;15969;51.536;11.884;2022-08-04T12:16:39;36.00;44.60
28835;DHT22;15969;51.536;11.884;2022-08-04T12:19:16;36.00;44.50
28835;DHT22;15969;51.536;11.884;2022-08-04T12:21:49;36.20;45.40
28835;DHT22;15969;51.536;11.884;2022-08-04T12:24:20;36.30;44.50
28835;DHT22;15969;51.536;11.884;2022-08-04T12:26:52;36.40;43.80
28835;DHT22;15969;51.536;11.884;2022-08-04T12:29:22;36.50;43.90
28835;DHT22;15969;51.536;11.884;2022-08-04T12:31:54;36.50;43.60
28835;DHT22;15969;51.536;11.884;2022-08-04T12:34:33;36.70;43.50
28835;DHT22;15969;51.536;11.884;2022-08-04T12:37:30;36.80;44.20
28835;DHT22;15969;51.536;11.884;2022-08-04T12:40:07;36.90;43.20
28835;DHT22;15969;51.536;11.884;2022-08-04T12:46:01;36.90;42.70
28835;DHT22;15969;51.536;11.884;2022-08-04T12:48:32;36.90;43.20
28835;DHT22;15969;51.536;11.884;2022-08-04T12:50:59;37.10;42.30
28835;DHT22;15969;51.536;11.884;2022-08-04T12:53:34;37.10;42.80
28835;DHT22;15969;51.536;11.884;2022-08-04T12:56:03;37.10;42.80
28835;DHT22;15969;51.536;11.884;2022-08-04T12:58:32;37.10;42.70
28835;DHT22;15969;51.536;11.884;2022-08-04T13:01:09;37.10;42.00
28835;DHT22;15969;51.536;11.884;2022-08-04T13:03:40;37.10;41.70
28835;DHT22;15969;51.536;11.884;2022-08-04T13:06:31;37.20;42.30
28835;DHT22;15969;51.536;11.884;2022-08-04T13:09:17;37.20;42.70
28835;DHT22;15969;51.536;11.884;2022-08-04T13:11:49;37.20;42.50
28835;DHT22;15969;51.536;11.884;2022-08-04T13:14:19;37.20;42.10
28835;DHT22;15969;51.536;11.884;2022-08-04T13:16:45;37.40;43.00
28835;DHT22;15969;51.536;11.884;2022-08-04T13:19:11;37.60;41.80
28835;DHT22;15969;51.536;11.884;2022-08-04T13:21:42;37.70;41.50
28835;DHT22;15969;51.536;11.884;2022-08-04T13:24:13;37.90;42.70
28835;DHT22;15969;51.536;11.884;2022-08-04T13:27:02;38.10;41.50
28835;DHT22;15969;51.536;11.884;2022-08-04T13:29:45;38.20;41.30
28835;DHT22;15969;51.536;11.884;2022-08-04T13:32:18;38.30;41.80
28835;DHT22;15969;51.536;11.884;2022-08-04T13:34:48;38.50;40.60
28835;DHT22;15969;51.536;11.884;2022-08-04T13:37:17;38.60;41.20
28835;DHT22;15969;51.536;11.884;2022-08-04T13:39:47;38.60;40.80
28835;DHT22;15969;51.536;11.884;2022-08-04T13:42:14;38.70;40.70
28835;DHT22;15969;51.536;11.884;2022-08-04T13:44:44;38.60;41.30
28835;DHT22;15969;51.536;11.884;2022-08-04T13:47:21;38.70;40.90
28835;DHT22;15969;51.536;11.884;2022-08-04T13:50:09;38.60;40.70
28835;DHT22;15969;51.536;11.884;2022-08-04T13:52:37;38.60;40.90
28835;DHT22;15969;51.536;11.884;2022-08-04T13:55:04;38.70;40.40
28835;DHT22;15969;51.536;11.884;2022-08-04T13:57:42;38.90;40.00
28835;DHT22;15969;51.536;11.884;2022-08-04T14:00:09;38.90;40.80
28835;DHT22;15969;51.536;11.884;2022-08-04T14:02:46;38.90;40.30
28835;DHT22;15969;51.536;11.884;2022-08-04T14:05:18;38.90;41.20
28835;DHT22;15969;51.536;11.884;2022-08-04T14:07:54;39.10;41.20
28835;DHT22;15969;51.536;11.884;2022-08-04T14:10:22;39.20;41.00
28835;DHT22;15969;51.536;11.884;2022-08-04T14:12:49;39.30;41.00
28835;DHT22;15969;51.536;11.884;2022-08-04T14:15:48;39.50;41.10
28835;DHT22;15969;51.536;11.884;2022-08-04T14:18:16;39.70;39.60
28835;DHT22;15969;51.536;11.884;2022-08-04T14:21:05;39.70;39.20
28835;DHT22;15969;51.536;11.884;2022-08-04T14:23:42;39.80;39.00
28835;DHT22;15969;51.536;11.884;2022-08-04T14:29:12;40.40;39.50
28835;DHT22;15969;51.536;11.884;2022-08-04T14:31:39;40.60;38.70
28835;DHT22;15969;51.536;11.884;2022-08-04T14:34:05;40.60;37.80
28835;DHT22;15969;51.536;11.884;2022-08-04T14:36:42;41.00;38.10
28835;DHT22;15969;51.536;11.884;2022-08-04T14:39:08;41.10;37.30
28835;DHT22;15969;51.536;11.884;2022-08-04T14:41:46;41.50;38.00
28835;DHT22;15969;51.536;11.884;2022-08-04T14:44:14;41.90;36.80
28835;DHT22;15969;51.536;11.884;2022-08-04T14:46:51;42.20;37.90
28835;DHT22;15969;51.536;11.884;2022-08-04T14:49:18;42.20;36.10
28835;DHT22;15969;51.536;11.884;2022-08-04T14:51:50;43.90;35.80
28835;DHT22;15969;51.536;11.884;2022-08-04T14:54:29;46.20;33.60
28835;DHT22;15969;51.536;11.884;2022-08-04T14:57:01;48.60;32.30
28835;DHT22;15969;51.536;11.884;2022-08-04T14:59:46;48.80;31.40
28835;DHT22;15969;51.536;11.884;2022-08-04T15:02:14;47.40;32.00
28835;DHT22;15969;51.536;11.884;2022-08-04T15:04:41;46.20;33.20
28835;DHT22;15969;51.536;11.884;2022-08-04T15:07:08;45.10;34.00
28835;DHT22;15969;51.536;11.884;2022-08-04T15:09:34;44.20;34.00
28835;DHT22;15969;51.536;11.884;2022-08-04T15:12:01;46.10;34.60
28835;DHT22;15969;51.536;11.884;2022-08-04T15:14:29;48.90;32.20
28835;DHT22;15969;51.536;11.884;2022-08-04T15:16:55;49.90;30.90
28835;DHT22;15969;51.536;11.884;2022-08-04T15:19:21;51.70;30.20
28835;DHT22;15969;51.536;11.884;2022-08-04T15:21:48;52.00;29.40
28835;DHT22;15969;51.536;11.884;2022-08-04T15:24:14;51.70;28.70
28835;DHT22;15969;51.536;11.884;2022-08-04T15:26:58;50.10;29.00
28835;DHT22;15969;51.536;11.884;2022-08-04T15:32:02;47.30;30.10
28835;DHT22;15969;51.536;11.884;2022-08-04T15:34:49;46.20;32.10
28835;DHT22;15969;51.536;11.884;2022-08-04T15:37:38;45.00;32.00
28835;DHT22;15969;51.536;11.884;2022-08-04T15:40:34;44.20;32.40
28835;DHT22;15969;51.536;11.884;2022-08-04T15:46:07;43.20;32.70
28835;DHT22;15969;51.536;11.884;2022-08-04T15:48:34;45.00;33.80
28835;DHT22;15969;51.536;11.884;2022-08-04T15:51:03;46.90;31.40
28835;DHT22;15969;51.536;11.884;2022-08-04T15:58:55;47.90;30.70
28835;DHT22;15969;51.536;11.884;2022-08-04T16:01:21;48.70;32.10
28835;DHT22;15969;51.536;11.884;2022-08-04T16:03:48;50.20;30.80
28835;DHT22;15969;51.536;11.884;2022-08-04T16:16:44;56.80;27.20
28835;DHT22;15969;51.536;11.884;2022-08-04T16:19:33;57.50;26.40
28835;DHT22;15969;51.536;11.884;2022-08-04T16:22:37;57.50;26.30
28835;DHT22;15969;51.536;11.884;2022-08-04T16:25:05;57.50;25.60
28835;DHT22;15969;51.536;11.884;2022-08-04T16:27:45;57.70;25.40
28835;DHT22;15969;51.536;11.884;2022-08-04T16:30:13;56.60;26.00
28835;DHT22;15969;51.536;11.884;2022-08-04T16:32:41;55.00;26.40
28835;DHT22;15969;51.536;11.884;2022-08-04T16:35:25;53.00;27.10
28835;DHT22;15969;51.536;11.884;2022-08-04T16:38:09;51.20;28.20
28835;DHT22;15969;51.536;11.884;2022-08-04T16:40:37;49.50;28.90
28835;DHT22;15969;51.536;11.884;2022-08-04T16:43:10;48.60;29.20
28835;DHT22;15969;51.536;11.884;2022-08-04T16:45:51;48.10;30.00
28835;DHT22;15969;51.536;11.884;2022-08-04T16:48:21;47.10;30.90
28835;DHT22;15969;51.536;11.884;2022-08-04T16:50:55;46.80;31.40
28835;DHT22;15969;51.536;11.884;2022-08-04T16:53:44;46.50;30.10
28835;DHT22;15969;51.536;11.884;2022-08-04T16:56:13;46.90;29.90
28835;DHT22;15969;51.536;11.884;2022-08-04T16:58:39;47.60;29.60
28835;DHT22;15969;51.536;11.884;2022-08-04T17:01:11;47.80;29.30
28835;DHT22;15969;51.536;11.884;2022-08-04T17:03:39;47.20;29.10
28835;DHT22;15969;51.536;11.884;2022-08-04T17:06:10;46.10;30.60
28835;DHT22;15969;51.536;11.884;2022-08-04T17:08:41;44.80;31.30
28835;DHT22;15969;51.536;11.884;2022-08-04T17:11:07;43.50;33.40
28835;DHT22;15969;51.536;11.884;2022-08-04T17:13:45;42.50;35.00
28835;DHT22;15969;51.536;11.884;2022-08-04T17:16:14;41.60;34.30
28835;DHT22;15969;51.536;11.884;2022-08-04T17:18:47;41.00;35.60
28835;DHT22;15969;51.536;11.884;2022-08-04T17:21:20;40.50;35.70
28835;DHT22;15969;51.536;11.884;2022-08-04T17:23:52;40.10;36.90
28835;DHT22;15969;51.536;11.884;2022-08-04T17:26:21;39.60;37.10
28835;DHT22;15969;51.536;11.884;2022-08-04T17:28:52;39.50;38.30
28835;DHT22;15969;51.536;11.884;2022-08-04T17:31:24;39.20;38.60
28835;DHT22;15969;51.536;11.884;2022-08-04T17:33:52;39.00;38.70
28835;DHT22;15969;51.536;11.884;2022-08-04T17:36:25;38.70;38.80
28835;DHT22;15969;51.536;11.884;2022-08-04T17:38:54;38.50;39.00
28835;DHT22;15969;51.536;11.884;2022-08-04T17:41:23;38.40;39.60
28835;DHT22;15969;51.536;11.884;2022-08-04T17:51:51;37.90;41.50
28835;DHT22;15969;51.536;11.884;2022-08-04T17:54:20;37.80;40.80
28835;DHT22;15969;51.536;11.884;2022-08-04T17:57:11;37.50;40.60
28835;DHT22;15969;51.536;11.884;2022-08-04T17:59:43;37.40;40.50
28835;DHT22;15969;51.536;11.884;2022-08-04T18:02:10;37.30;41.00
28835;DHT22;15969;51.536;11.884;2022-08-04T18:07:11;37.10;41.10
28835;DHT22;15969;51.536;11.884;2022-08-04T18:12:24;36.80;42.40
28835;DHT22;15969;51.536;11.884;2022-08-04T18:14:52;36.60;43.50
28835;DHT22;15969;51.536;11.884;2022-08-04T18:17:36;36.40;43.10
28835;DHT22;15969;51.536;11.884;2022-08-04T18:20:06;36.20;43.90
28835;DHT22;15969;51.536;11.884;2022-08-04T18:22:35;35.90;43.90
28835;DHT22;15969;51.536;11.884;2022-08-04T18:25:01;35.90;42.50
28835;DHT22;15969;51.536;11.884;2022-08-04T18:27:30;35.60;41.30
28835;DHT22;15969;51.536;11.884;2022-08-04T18:29:57;35.40;41.50
28835;DHT22;15969;51.536;11.884;2022-08-04T18:32:23;35.40;42.30
28835;DHT22;15969;51.536;11.884;2022-08-04T18:34:51;35.20;42.40
28835;DHT22;15969;51.536;11.884;2022-08-04T18:39:43;34.40;42.20
28835;DHT22;15969;51.536;11.884;2022-08-04T18:42:10;34.10;44.50
28835;DHT22;15969;51.536;11.884;2022-08-04T18:44:36;33.90;43.30
28835;DHT22;15969;51.536;11.884;2022-08-04T18:47:02;33.50;43.60
28835;DHT22;15969;51.536;11.884;2022-08-04T18:51:56;33.30;43.80
28835;DHT22;15969;51.536;11.884;2022-08-04T18:54:23;33.20;44.80
28835;DHT22;15969;51.536;11.884;2022-08-04T18:56:51;33.10;45.20
28835;DHT22;15969;51.536;11.884;2022-08-04T18:59:17;32.90;45.40
28835;DHT22;15969;51.536;11.884;2022-08-04T19:01:43;32.60;45.80
28835;DHT22;15969;51.536;11.884;2022-08-04T19:04:09;32.50;45.80
28835;DHT22;15969;51.536;11.884;2022-08-04T19:06:36;32.30;46.90
28835;DHT22;15969;51.536;11.884;2022-08-04T19:09:03;32.10;46.80
28835;DHT22;15969;51.536;11.884;2022-08-04T19:11:30;32.00;47.40
28835;DHT22;15969;51.536;11.884;2022-08-04T19:13:58;31.80;47.90
28835;DHT22;15969;51.536;11.884;2022-08-04T19:16:26;31.70;48.00
28835;DHT22;15969;51.536;11.884;2022-08-04T19:18:52;31.40;48.50
28835;DHT22;15969;51.536;11.884;2022-08-04T19:21:17;31.30;49.30
28835;DHT22;15969;51.536;11.884;2022-08-04T19:23:43;31.20;49.90
28835;DHT22;15969;51.536;11.884;2022-08-04T19:26:09;31.10;49.90
28835;DHT22;15969;51.536;11.884;2022-08-04T19:31:04;30.70;49.80
28835;DHT22;15969;51.536;11.884;2022-08-04T19:33:30;30.70;50.30
28835;DHT22;15969;51.536;11.884;2022-08-04T19:35:57;30.60;50.20
28835;DHT22;15969;51.536;11.884;2022-08-04T19:43:15;30.10;49.80
28835;DHT22;15969;51.536;11.884;2022-08-04T19:45:41;30.00;50.00
28835;DHT22;15969;51.536;11.884;2022-08-04T19:48:06;29.90;51.00
28835;DHT22;15969;51.536;11.884;2022-08-04T19:50:33;29.90;51.10